Airfield :
LOGIN :

Register | Disclaimer

   EN    FR    IT 

 










Legend :    VFR   Marginal VFR   IFR   Intensive IFR   Very Intensive IFR
Visi :
Ceiling :
>= 8 km
>= 3000ft
5 to 8 km
1000 to 3000 ft
1500m to 5 km
500 to 1000 ft
800 to 1500m
200 to 500 ft
< 800m
< 200 ft
Symbols :   Thunderstorms  Fog  Heavy snow  Heavy precipitations  Wind > 20 kt
SIGMETs :     Misc.  Thunderstorms  Icing  Turbulence  Mountain Waves  Volcanic Ashes







- Airport Elevation : 100 ft


EBDT - Schaffen

CURRENT METAR :
  • 211520Z AUTO 06006KT 9999 NCD 24/08 Q1019 BLU

EXPIRED METARs :
  • 211509Z AUTO 09004KT 5000 NCD 24/09 Q1019 WHT
  • 211455Z AUTO 09003KT 9000 NCD 25/09 Q1019 BLU
  • 211425Z AUTO 06003KT 9999 NCD 24/10 Q1020 BLU
  • 211355Z AUTO 01005KT 9999 FEW041/// 23/11 Q1020 BLU
  • 211325Z AUTO VRB02KT 9000 FEW240/// 25/12 Q1020 BLU
  • 211309Z AUTO 03005KT 6000 NCD 23/11 Q1021 WHT
  • 211255Z AUTO 02003KT 9999 -RA NCD 23/11 Q1021 BLU
  • 211247Z AUTO 01004KT 7000 FEW210/// 22/11 Q1021 WHT
  • 211244Z AUTO 01005KT 9000 FEW210/// 23/12 Q1021 BLU
  • 211233Z AUTO 03004KT 4400 FEW210/// 23/12 Q1021 GRN
  • 211225Z AUTO 04004KT 7000 FEW210/// 22/11 Q1021 WHT

Expired Forecast.
No reported NOTAMs for that airfield.



MET'MAP, your aeronautical weather chart ! - Copyright ORBIFLY December 2007 - Disclaimer

ORBIFLY MET'MAP TEAM :

Programming & Development : Alexandra Zaïnal
Concept & Development : Baudouin d'Aumeries
Co-Development & Prog : Marc-Olivier Méhu
Technical & hardware support : Manuel Goepfert

Contact : metmap@orbifly.com




SOURCES & CREDITS :

   NOAA